createdAt,value
2022-11-25T00:01:23.494Z,101219.03
2022-11-25T00:03:52.056Z,101217.22
2022-11-25T00:06:22.359Z,101207.44
2022-11-25T00:08:53.608Z,101204.78
2022-11-25T00:11:20.807Z,101200.31
2022-11-25T00:13:49.069Z,101193.22
2022-11-25T00:16:19.136Z,101195.91
2022-11-25T00:18:52.114Z,101179.84
2022-11-25T00:21:22.082Z,101176.31
2022-11-25T00:23:53.592Z,101173.75
2022-11-25T00:26:22.550Z,101176.31
2022-11-25T00:28:51.901Z,101174.59
2022-11-25T00:31:21.381Z,101178.13
2022-11-25T00:33:49.695Z,101184.47
2022-11-25T00:36:20.421Z,101188.00
2022-11-25T00:38:52.234Z,101186.28
2022-11-25T00:41:38.063Z,101199.66
2022-11-25T00:44:23.854Z,101197.00
2022-11-25T00:46:51.160Z,101193.47
2022-11-25T00:49:18.394Z,101191.63
2022-11-25T00:51:46.598Z,101188.13
2022-11-25T00:54:13.974Z,101197.94
2022-11-25T00:56:41.360Z,101215.81
2022-11-25T00:59:09.160Z,101219.34
2022-11-25T01:01:37.033Z,101222.00
2022-11-25T01:04:05.115Z,101218.50
2022-11-25T01:06:34.535Z,101220.31
2022-11-25T01:09:01.960Z,101219.34
2022-11-25T01:11:29.449Z,101222.13
2022-11-25T01:14:01.346Z,101231.88
2022-11-25T01:16:29.340Z,101223.97
2022-11-25T01:18:58.829Z,101219.47
2022-11-25T01:21:32.688Z,101233.81
2022-11-25T01:24:02.365Z,101220.44
2022-11-25T01:26:30.922Z,101228.47
2022-11-25T01:29:01.559Z,101235.63
2022-11-25T01:31:31.496Z,101246.34
2022-11-25T01:34:01.928Z,101241.06
2022-11-25T01:36:30.020Z,101240.13
2022-11-25T01:38:59.709Z,101260.66
2022-11-25T01:41:30.568Z,101261.53
2022-11-25T01:44:12.317Z,101265.16
2022-11-25T01:46:51.632Z,101260.66
2022-11-25T01:49:31.105Z,101250.94
2022-11-25T01:52:23.758Z,101247.41
2022-11-25T01:54:56.890Z,101250.94
2022-11-25T01:57:45.825Z,101250.94
2022-11-25T02:00:13.848Z,101253.59
2022-11-25T02:02:51.048Z,101246.56
2022-11-25T02:05:22.185Z,101242.06
2022-11-25T02:07:51.553Z,101245.69
2022-11-25T02:10:38.135Z,101255.53
2022-11-25T02:13:05.552Z,101261.84
2022-11-25T02:15:35.301Z,101271.59
2022-11-25T02:18:05.222Z,101258.22
2022-11-25T02:20:32.879Z,101248.38
2022-11-25T02:23:25.892Z,101239.59
2022-11-25T02:25:55.694Z,101255.63
2022-11-25T02:28:29.730Z,101277.88
2022-11-25T02:30:57.957Z,101265.47
2022-11-25T02:33:26.226Z,101277.03
2022-11-25T02:35:57.374Z,101263.66
2022-11-25T02:38:39.493Z,101270.84
2022-11-25T02:41:33.812Z,101278.88
2022-11-25T02:44:05.128Z,101280.69
2022-11-25T02:46:33.246Z,101277.16
2022-11-25T02:49:10.736Z,101281.66
2022-11-25T02:51:41.880Z,101305.63
2022-11-25T02:54:10.795Z,101311.94
2022-11-25T02:56:38.617Z,101305.72
2022-11-25T02:59:06.441Z,101302.22
2022-11-25T03:01:35.410Z,101315.59
2022-11-25T03:04:06.478Z,101327.16
2022-11-25T03:06:34.397Z,101334.31
2022-11-25T03:09:02.837Z,101345.03
2022-11-25T03:11:49.825Z,101342.34
2022-11-25T03:14:17.443Z,101339.66
2022-11-25T03:16:44.837Z,101353.97
2022-11-25T03:19:12.422Z,101352.19
2022-11-25T03:21:39.683Z,101354.88
2022-11-25T03:24:07.745Z,101345.94
2022-11-25T03:26:35.096Z,101351.31
2022-11-25T03:29:02.545Z,101353.97
2022-11-25T03:31:29.943Z,101336.22
2022-11-25T03:33:57.293Z,101332.56
2022-11-25T03:36:24.745Z,101331.72
2022-11-25T03:38:52.099Z,101346.06
2022-11-25T03:41:19.465Z,101343.41
2022-11-25T03:43:47.279Z,101355.81
2022-11-25T03:46:15.281Z,101354.09
2022-11-25T03:48:42.698Z,101351.31
2022-11-25T03:51:10.093Z,101334.50
2022-11-25T03:53:38.515Z,101344.38
2022-11-25T03:56:08.492Z,101347.91
2022-11-25T03:58:36.045Z,101357.75
2022-11-25T04:01:05.642Z,101369.31
2022-11-25T04:03:33.000Z,101370.28
2022-11-25T04:06:00.346Z,101367.59
2022-11-25T04:08:29.086Z,101354.22
2022-11-25T04:10:56.695Z,101349.81
2022-11-25T04:13:27.814Z,101357.75
2022-11-25T04:15:55.157Z,101355.16
2022-11-25T04:18:22.475Z,101349.81
2022-11-25T04:20:53.408Z,101352.47
2022-11-25T04:23:20.762Z,101362.31
2022-11-25T04:26:02.248Z,101357.81
2022-11-25T04:28:37.132Z,101336.53
2022-11-25T04:31:08.309Z,101340.06
2022-11-25T04:33:38.455Z,101345.41
2022-11-25T04:36:06.427Z,101337.41
2022-11-25T04:38:33.785Z,101333.00
2022-11-25T04:41:02.886Z,101329.38
2022-11-25T04:43:34.572Z,101325.00
2022-11-25T04:46:14.042Z,101322.31
2022-11-25T04:48:44.878Z,101328.63
2022-11-25T04:51:14.322Z,101329.50
2022-11-25T04:53:42.679Z,101332.16
2022-11-25T04:56:17.107Z,101321.53
2022-11-25T04:59:04.604Z,101334.84
2022-11-25T05:01:32.245Z,101340.28
2022-11-25T05:04:19.891Z,101346.50
2022-11-25T05:06:47.668Z,101366.09
2022-11-25T05:09:16.533Z,101353.66
2022-11-25T05:11:45.528Z,101353.66
2022-11-25T05:14:13.054Z,101354.63
2022-11-25T05:16:40.471Z,101341.25
2022-11-25T05:19:10.514Z,101338.56
2022-11-25T05:21:38.983Z,101333.22
2022-11-25T05:24:06.365Z,101339.41
2022-11-25T05:26:34.634Z,101332.38
2022-11-25T05:29:02.052Z,101328.84
2022-11-25T05:31:32.024Z,101327.88
2022-11-25T05:34:03.191Z,101320.81
2022-11-25T05:36:31.930Z,101334.19
2022-11-25T05:38:59.812Z,101337.84
2022-11-25T05:41:43.369Z,101337.72
2022-11-25T05:44:10.818Z,101343.91
2022-11-25T05:46:39.146Z,101336.00
2022-11-25T05:49:06.593Z,101341.25
2022-11-25T05:51:34.164Z,101347.56
2022-11-25T05:54:04.720Z,101351.94
2022-11-25T05:56:34.780Z,101336.88
2022-11-25T05:59:05.538Z,101342.22
2022-11-25T06:01:53.938Z,101329.69
2022-11-25T06:04:21.543Z,101344.03
2022-11-25T06:06:49.841Z,101342.22
2022-11-25T06:09:18.446Z,101336.88
2022-11-25T06:11:46.022Z,101341.34
2022-11-25T06:14:13.593Z,101335.16
2022-11-25T06:16:41.232Z,101333.41
2022-11-25T06:19:20.427Z,101328.94
2022-11-25T06:21:48.080Z,101323.59
2022-11-25T06:24:16.150Z,101322.72
2022-11-25T06:26:46.005Z,101326.28
2022-11-25T06:29:13.310Z,101334.38
2022-11-25T06:31:44.926Z,101349.47
2022-11-25T06:34:37.461Z,101350.44
2022-11-25T06:37:07.362Z,101358.38
2022-11-25T06:39:35.095Z,101363.72
2022-11-25T06:42:02.505Z,101381.56
2022-11-25T06:44:29.869Z,101381.56
2022-11-25T06:46:57.134Z,101384.25
2022-11-25T06:49:24.489Z,101402.97
2022-11-25T06:51:51.806Z,101401.25
2022-11-25T06:54:19.141Z,101405.75
2022-11-25T06:56:51.607Z,101405.75
2022-11-25T06:59:19.039Z,101411.97
2022-11-25T07:01:46.682Z,101413.78
2022-11-25T07:04:14.247Z,101415.59
2022-11-25T07:06:41.647Z,101416.47
2022-11-25T07:09:09.395Z,101417.44
2022-11-25T07:11:39.786Z,101417.44
2022-11-25T07:14:11.772Z,101426.19
2022-11-25T07:16:43.532Z,101431.66
2022-11-25T07:19:13.036Z,101430.81
2022-11-25T07:21:40.547Z,101430.81
2022-11-25T07:24:08.220Z,101435.28
2022-11-25T07:26:38.459Z,101436.16
2022-11-25T07:29:23.564Z,101435.28
2022-11-25T07:31:56.934Z,101434.44
2022-11-25T07:34:24.216Z,101430.88
2022-11-25T07:36:51.509Z,101424.59
2022-11-25T07:39:21.938Z,101430.81
2022-11-25T07:41:53.659Z,101433.47
2022-11-25T07:44:21.345Z,101429.94
2022-11-25T07:47:01.389Z,101431.78
2022-11-25T07:49:28.756Z,101435.28
2022-11-25T07:51:59.691Z,101433.56
2022-11-25T07:54:27.171Z,101444.25
2022-11-25T07:56:54.522Z,101446.00
2022-11-25T07:59:23.244Z,101449.59
2022-11-25T08:01:55.510Z,101454.03
2022-11-25T08:04:23.582Z,101455.84
2022-11-25T08:06:52.404Z,101454.88
2022-11-25T08:09:22.894Z,101465.56
2022-11-25T08:11:50.890Z,101462.78
2022-11-25T08:14:18.687Z,101469.00
2022-11-25T08:16:46.344Z,101460.97
2022-11-25T08:19:17.455Z,101458.28
2022-11-25T08:21:47.744Z,101464.41
2022-11-25T08:24:17.342Z,101468.06
2022-11-25T08:26:44.713Z,101468.91
2022-11-25T08:29:16.854Z,101477.78
2022-11-25T08:31:44.514Z,101472.44
2022-11-25T08:34:18.825Z,101466.97
2022-11-25T08:36:48.767Z,101469.66
2022-11-25T08:39:44.259Z,101466.97
2022-11-25T08:42:06.129Z,101469.56
2022-11-25T08:44:33.708Z,101471.34
2022-11-25T08:47:01.070Z,101476.63
2022-11-25T08:49:31.189Z,101467.63
2022-11-25T08:52:01.046Z,101472.13
2022-11-25T08:54:28.366Z,101480.16
2022-11-25T08:56:55.620Z,101480.16
2022-11-25T08:59:22.955Z,101470.31
2022-11-25T09:01:50.359Z,101459.59
2022-11-25T09:04:17.668Z,101457.78
2022-11-25T09:06:44.891Z,101467.50
2022-11-25T09:09:12.223Z,101481.78
2022-11-25T09:11:39.497Z,101476.44
2022-11-25T09:14:07.030Z,101477.28
2022-11-25T09:16:34.407Z,101471.94
2022-11-25T09:19:02.026Z,101462.09
2022-11-25T09:21:29.324Z,101468.19
2022-11-25T09:23:56.729Z,101469.03
2022-11-25T09:26:35.655Z,101477.94
2022-11-25T09:29:03.786Z,101475.16
2022-11-25T09:31:31.494Z,101485.75
2022-11-25T09:33:59.553Z,101490.16
2022-11-25T09:36:27.090Z,101484.81
2022-11-25T09:38:54.295Z,101494.44
2022-11-25T09:41:53.955Z,101492.72
2022-11-25T09:45:06.847Z,101507.91
2022-11-25T09:47:47.479Z,101498.06
2022-11-25T09:50:34.463Z,101500.75
2022-11-25T09:53:24.760Z,101495.41
2022-11-25T09:56:01.605Z,101498.06
2022-11-25T09:58:53.972Z,101499.91
2022-11-25T10:01:25.054Z,101503.41
2022-11-25T10:04:11.379Z,101487.38
2022-11-25T10:06:57.159Z,101471.31
2022-11-25T10:09:28.026Z,101466.94
2022-11-25T10:12:27.695Z,101468.63
2022-11-25T10:15:04.947Z,101455.25
2022-11-25T10:17:35.264Z,101452.56
2022-11-25T10:20:14.416Z,101446.25
2022-11-25T10:22:47.829Z,101440.16
2022-11-25T10:25:24.176Z,101433.84
2022-11-25T10:28:01.863Z,101438.34
2022-11-25T10:30:42.108Z,101431.28
2022-11-25T10:33:21.111Z,101437.50
2022-11-25T10:35:57.256Z,101439.19
2022-11-25T10:38:33.060Z,101437.50
2022-11-25T10:41:03.988Z,101438.34
2022-11-25T10:43:37.814Z,101427.72
2022-11-25T10:46:20.176Z,101419.69
2022-11-25T10:49:04.721Z,101419.69
2022-11-25T10:51:47.916Z,101421.44
2022-11-25T10:54:27.929Z,101418.75
2022-11-25T10:57:00.975Z,101414.34
2022-11-25T10:59:35.237Z,101414.34
2022-11-25T11:02:24.441Z,101411.69
2022-11-25T11:05:11.917Z,101403.66
2022-11-25T11:07:41.610Z,101409.00
2022-11-25T11:10:15.125Z,101394.78
2022-11-25T11:13:07.156Z,101394.78
2022-11-25T11:15:55.060Z,101407.28
2022-11-25T11:18:37.439Z,101398.28
2022-11-25T11:21:21.807Z,101394.78
2022-11-25T11:23:52.696Z,101403.66
2022-11-25T11:26:29.399Z,101394.78
2022-11-25T11:29:16.535Z,101385.81
2022-11-25T11:32:02.713Z,101387.59
2022-11-25T11:34:54.197Z,101389.41
2022-11-25T11:37:43.769Z,101376.03
2022-11-25T11:40:19.800Z,101377.84
2022-11-25T11:43:24.372Z,101369.84
2022-11-25T11:46:06.814Z,101356.47
2022-11-25T11:48:53.553Z,101364.47
2022-11-25T11:51:27.146Z,101368.88
2022-11-25T11:54:13.916Z,101379.69
2022-11-25T11:56:43.412Z,101379.69
2022-11-25T11:59:29.504Z,101381.50
2022-11-25T12:02:16.704Z,101381.50
2022-11-25T12:05:01.537Z,101369.84
2022-11-25T12:07:38.169Z,101373.47
2022-11-25T12:10:14.643Z,101371.66
2022-11-25T12:13:15.921Z,101367.16
2022-11-25T12:16:01.951Z,101368.00
2022-11-25T12:18:50.761Z,101366.31
2022-11-25T12:21:42.048Z,101368.88
2022-11-25T12:24:09.606Z,101366.19
2022-11-25T12:26:46.973Z,101368.00
2022-11-25T12:29:29.482Z,101367.16
2022-11-25T12:32:10.100Z,101356.38
2022-11-25T12:34:46.242Z,101351.97
2022-11-25T12:37:30.499Z,101353.69
2022-11-25T12:40:08.087Z,101352.81
2022-11-25T12:42:39.334Z,101359.91
2022-11-25T12:45:33.538Z,101364.28
2022-11-25T12:48:00.941Z,101362.56
2022-11-25T12:50:58.138Z,101365.25
2022-11-25T12:53:43.202Z,101361.72
2022-11-25T12:56:24.592Z,101356.38
2022-11-25T12:59:43.584Z,101354.53
2022-11-25T13:02:16.995Z,101352.72
2022-11-25T13:05:32.815Z,101359.78
2022-11-25T13:08:19.116Z,101354.53
2022-11-25T13:11:05.389Z,101352.72
2022-11-25T13:13:39.053Z,101349.19
2022-11-25T13:16:09.137Z,101348.34
2022-11-25T13:18:41.692Z,101352.81
2022-11-25T13:21:14.968Z,101351.88
2022-11-25T13:23:58.899Z,101350.91
2022-11-25T13:26:33.883Z,101354.44
2022-11-25T13:29:06.554Z,101349.19
2022-11-25T13:31:58.767Z,101344.78
2022-11-25T13:34:30.104Z,101343.00
2022-11-25T13:36:59.443Z,101341.16
2022-11-25T13:39:37.590Z,101349.19
2022-11-25T13:42:26.616Z,101353.69
2022-11-25T13:44:55.164Z,101347.47
2022-11-25T13:47:41.572Z,101350.13
2022-11-25T13:50:17.649Z,101360.84
2022-11-25T13:53:16.419Z,101350.13
2022-11-25T13:55:44.596Z,101356.38
2022-11-25T13:58:26.097Z,101350.13
2022-11-25T14:01:00.958Z,101357.31
2022-11-25T14:03:28.248Z,101351.09
2022-11-25T14:06:29.647Z,101350.13
2022-11-25T14:09:05.825Z,101356.38
2022-11-25T14:11:57.691Z,101351.97
2022-11-25T14:14:52.467Z,101356.47
2022-11-25T14:17:42.340Z,101360.09
2022-11-25T14:20:31.317Z,101348.44
2022-11-25T14:23:36.252Z,101357.44
2022-11-25T14:26:21.119Z,101352.94
2022-11-25T14:29:17.115Z,101358.28
2022-11-25T14:31:50.586Z,101361.81
2022-11-25T14:34:24.303Z,101356.47
2022-11-25T14:37:01.198Z,101361.81
2022-11-25T14:39:52.221Z,101357.44
2022-11-25T14:42:23.488Z,101364.59
2022-11-25T14:44:59.297Z,101372.63
2022-11-25T14:47:30.619Z,101376.16
2022-11-25T14:52:48.352Z,101388.69
2022-11-25T14:55:28.709Z,101383.31
2022-11-25T14:57:56.420Z,101394.88
2022-11-25T15:00:24.024Z,101395.84
2022-11-25T15:03:00.574Z,101386.97
2022-11-25T15:05:36.521Z,101384.28
2022-11-25T15:08:17.901Z,101379.81
2022-11-25T15:10:57.537Z,101386.97
2022-11-25T15:13:35.958Z,101378.84
2022-11-25T15:16:25.237Z,101381.50
2022-11-25T15:18:57.732Z,101383.31
2022-11-25T15:21:28.687Z,101380.53
2022-11-25T15:23:56.281Z,101368.13
2022-11-25T15:26:26.777Z,101367.16
2022-11-25T15:28:56.847Z,101374.34
2022-11-25T15:31:35.970Z,101377.00
2022-11-25T15:34:06.979Z,101374.34
2022-11-25T15:36:34.378Z,101375.19
2022-11-25T15:39:25.137Z,101373.47
2022-11-25T15:42:06.684Z,101372.50
2022-11-25T15:44:39.146Z,101375.19
2022-11-25T15:47:18.295Z,101377.84
2022-11-25T15:50:14.695Z,101377.84
2022-11-25T15:52:47.155Z,101375.19
2022-11-25T15:55:41.002Z,101376.88
2022-11-25T15:58:17.181Z,101374.22
2022-11-25T16:01:06.913Z,101383.13
2022-11-25T16:03:35.575Z,101383.97
2022-11-25T16:06:28.057Z,101393.72
2022-11-25T16:09:01.297Z,101386.66
2022-11-25T16:11:33.465Z,101392.00
2022-11-25T16:14:26.202Z,101395.53
2022-11-25T16:17:02.404Z,101392.00
2022-11-25T16:19:37.743Z,101392.00
2022-11-25T16:22:06.067Z,101394.69
2022-11-25T16:24:36.451Z,101392.09
2022-11-25T16:27:19.100Z,101392.00
2022-11-25T16:30:19.573Z,101395.63
2022-11-25T16:32:46.946Z,101403.66
2022-11-25T16:35:15.185Z,101404.53
2022-11-25T16:37:47.217Z,101399.25
2022-11-25T16:40:17.987Z,101402.72
2022-11-25T16:42:48.907Z,101399.19
2022-11-25T16:45:27.976Z,101398.28
2022-11-25T16:47:55.725Z,101397.44
2022-11-25T16:50:23.337Z,101399.25
2022-11-25T16:52:50.636Z,101392.94
2022-11-25T16:55:18.702Z,101390.38
2022-11-25T16:57:46.293Z,101396.59
2022-11-25T17:00:17.497Z,101401.09
2022-11-25T17:02:45.111Z,101410.81
2022-11-25T17:05:22.933Z,101415.22
2022-11-25T17:07:51.051Z,101414.34
2022-11-25T17:10:20.650Z,101418.00
2022-11-25T17:12:48.917Z,101422.38
2022-11-25T17:15:24.661Z,101427.72
2022-11-25T17:17:52.498Z,101421.53
2022-11-25T17:20:24.724Z,101418.00
2022-11-25T17:22:53.302Z,101422.38
2022-11-25T17:25:22.671Z,101414.34
2022-11-25T17:27:51.633Z,101414.47
2022-11-25T17:30:27.501Z,101409.00
2022-11-25T17:33:19.450Z,101409.00
2022-11-25T17:35:47.137Z,101420.66
2022-11-25T17:38:18.457Z,101424.19
2022-11-25T17:40:46.753Z,101421.53
2022-11-25T17:43:17.076Z,101423.34
2022-11-25T17:45:45.708Z,101419.69
2022-11-25T17:48:15.908Z,101421.53
2022-11-25T17:50:43.749Z,101423.34
2022-11-25T17:53:11.243Z,101423.34
2022-11-25T17:55:40.832Z,101420.66
2022-11-25T17:58:11.150Z,101415.31
2022-11-25T18:00:41.787Z,101417.16
2022-11-25T18:03:13.587Z,101414.47
2022-11-25T18:05:41.074Z,101415.31
2022-11-25T18:08:08.640Z,101415.31
2022-11-25T18:10:36.032Z,101421.63
2022-11-25T18:13:05.092Z,101418.97
2022-11-25T18:15:34.190Z,101425.16
2022-11-25T18:18:04.465Z,101419.81
2022-11-25T18:20:33.209Z,101435.03
2022-11-25T18:23:00.987Z,101428.69
2022-11-25T18:25:33.943Z,101435.88
2022-11-25T18:30:45.733Z,101458.03
2022-11-25T18:33:15.020Z,101452.78
2022-11-25T18:35:43.724Z,101459.75
2022-11-25T18:38:11.517Z,101462.44
2022-11-25T18:40:42.552Z,101462.44
2022-11-25T18:43:25.101Z,101462.31
2022-11-25T18:45:54.238Z,101465.97
2022-11-25T18:48:23.707Z,101467.66
2022-11-25T18:50:53.733Z,101474.84
2022-11-25T18:53:21.059Z,101480.19
2022-11-25T18:55:49.162Z,101490.78
2022-11-25T18:58:17.747Z,101490.78
2022-11-25T19:00:48.678Z,101488.03
2022-11-25T19:03:24.840Z,101490.78
2022-11-25T19:05:58.501Z,101497.88
2022-11-25T19:08:25.793Z,101498.72
2022-11-25T19:10:53.566Z,101495.19
2022-11-25T19:13:31.629Z,101498.72
2022-11-25T19:16:07.869Z,101498.72
2022-11-25T19:18:35.655Z,101496.06
2022-11-25T19:21:03.051Z,101495.19
2022-11-25T19:23:30.614Z,101493.38
2022-11-25T19:26:04.941Z,101492.53
2022-11-25T19:28:32.612Z,101498.72
2022-11-25T19:31:04.585Z,101495.19
2022-11-25T19:33:37.734Z,101500.56
2022-11-25T19:36:06.541Z,101497.03
2022-11-25T19:38:34.931Z,101506.84
2022-11-25T19:41:02.252Z,101514.78
2022-11-25T19:43:29.594Z,101519.28
2022-11-25T19:45:58.188Z,101529.13
2022-11-25T19:48:29.465Z,101526.47
2022-11-25T19:51:02.021Z,101521.97
2022-11-25T19:53:33.895Z,101520.22
2022-11-25T19:56:04.679Z,101529.13
2022-11-25T19:58:32.452Z,101521.97
2022-11-25T20:01:05.920Z,101519.28
2022-11-25T20:03:34.896Z,101517.47
2022-11-25T20:06:02.154Z,101520.22
2022-11-25T20:08:29.481Z,101525.50
2022-11-25T20:10:58.180Z,101533.50
2022-11-25T20:13:26.141Z,101524.53
2022-11-25T20:15:55.967Z,101538.88
2022-11-25T20:18:25.445Z,101537.91
2022-11-25T20:21:04.824Z,101545.81
2022-11-25T20:23:43.983Z,101545.81
2022-11-25T20:26:18.122Z,101545.81
2022-11-25T20:28:45.630Z,101541.34
2022-11-25T20:31:14.053Z,101541.34
2022-11-25T20:33:41.772Z,101546.59
2022-11-25T20:36:14.771Z,101545.44
2022-11-25T20:38:47.418Z,101533.34
2022-11-25T20:41:15.566Z,101541.81
2022-11-25T20:43:46.667Z,101544.94
2022-11-25T20:46:21.294Z,101541.84
2022-11-25T20:48:51.906Z,101545.19
2022-11-25T20:51:21.853Z,101561.81
2022-11-25T20:53:56.376Z,101563.25
2022-11-25T20:56:25.872Z,101562.84
2022-11-25T20:58:53.570Z,101562.41
2022-11-25T21:01:20.960Z,101559.31
2022-11-25T21:03:50.182Z,101560.84
2022-11-25T21:06:30.519Z,101560.41
2022-11-25T21:09:01.129Z,101565.56
2022-11-25T21:11:32.960Z,101557.41
2022-11-25T21:14:00.558Z,101558.03
2022-11-25T21:16:28.922Z,101561.50
2022-11-25T21:18:56.429Z,101561.25
2022-11-25T21:21:32.207Z,101567.25
2022-11-25T21:24:08.139Z,101561.69
2022-11-25T21:26:35.480Z,101558.69
2022-11-25T21:29:02.788Z,101555.03
2022-11-25T21:31:30.625Z,101560.09
2022-11-25T21:33:59.102Z,101560.84
2022-11-25T21:36:29.702Z,101568.75
2022-11-25T21:39:12.446Z,101566.97
2022-11-25T21:41:40.299Z,101581.22
2022-11-25T21:44:08.218Z,101580.38
2022-11-25T21:46:35.615Z,101578.63
2022-11-25T21:49:10.415Z,101576.91
2022-11-25T21:51:37.977Z,101588.69
2022-11-25T21:54:05.320Z,101592.28
2022-11-25T21:56:34.558Z,101595.88
2022-11-25T21:59:05.785Z,101586.16
2022-11-25T22:01:33.265Z,101590.66
2022-11-25T22:04:00.636Z,101590.66
2022-11-25T22:06:30.061Z,101590.66
2022-11-25T22:08:57.751Z,101591.50
2022-11-25T22:11:38.708Z,101594.31
2022-11-25T22:14:27.744Z,101597.72
2022-11-25T22:16:56.447Z,101597.72
2022-11-25T22:19:26.557Z,101601.38
2022-11-25T22:21:54.847Z,101608.44
2022-11-25T22:24:22.361Z,101604.91
2022-11-25T22:26:56.153Z,101605.75
2022-11-25T22:29:35.089Z,101603.84
2022-11-25T22:32:08.257Z,101617.00
2022-11-25T22:34:38.731Z,101614.66
2022-11-25T22:37:15.903Z,101614.25
2022-11-25T22:39:43.297Z,101616.34
2022-11-25T22:42:20.118Z,101619.28
2022-11-25T22:44:49.209Z,101628.50
2022-11-25T22:47:25.319Z,101629.44
2022-11-25T22:49:53.181Z,101632.34
2022-11-25T22:52:27.466Z,101642.28
2022-11-25T22:54:55.102Z,101637.13
2022-11-25T22:57:22.573Z,101637.34
2022-11-25T22:59:50.030Z,101641.84
2022-11-25T23:02:23.920Z,101650.00
2022-11-25T23:04:53.778Z,101656.31
2022-11-25T23:07:22.722Z,101658.22
2022-11-25T23:09:50.560Z,101657.47
2022-11-25T23:12:19.422Z,101658.44
2022-11-25T23:14:46.709Z,101654.88
2022-11-25T23:17:25.096Z,101650.50
2022-11-25T23:19:53.352Z,101656.81
2022-11-25T23:22:20.788Z,101656.81
2022-11-25T23:24:49.327Z,101653.38
2022-11-25T23:27:16.792Z,101652.53
2022-11-25T23:29:45.059Z,101647.16
2022-11-25T23:32:20.662Z,101646.31
2022-11-25T23:34:50.581Z,101640.09
2022-11-25T23:37:18.195Z,101628.53
2022-11-25T23:39:51.556Z,101640.09
2022-11-25T23:42:20.574Z,101622.31
2022-11-25T23:44:47.843Z,101628.53
2022-11-25T23:47:21.774Z,101634.00
2022-11-25T23:49:53.002Z,101633.03
2022-11-25T23:52:24.252Z,101631.31
2022-11-25T23:54:52.599Z,101636.69
2022-11-25T23:57:32.778Z,101637.63
